createdAt,value
2022-11-14T00:00:56.016Z,27.33
2022-11-14T00:03:22.853Z,26.38
2022-11-14T00:05:49.661Z,26.23
2022-11-14T00:08:25.437Z,24.92
2022-11-14T00:10:52.712Z,25.10
2022-11-14T00:13:20.801Z,25.83
2022-11-14T00:15:54.197Z,25.10
2022-11-14T00:18:21.665Z,24.50
2022-11-14T00:20:50.046Z,24.90
2022-11-14T00:23:16.920Z,24.15
2022-11-14T00:25:45.085Z,24.05
2022-11-14T00:28:12.090Z,22.80
2022-11-14T00:30:38.920Z,23.27
2022-11-14T00:33:05.860Z,23.10
2022-11-14T00:35:32.677Z,22.88
2022-11-14T00:37:59.510Z,22.25
2022-11-14T00:40:26.341Z,22.85
2022-11-14T00:42:53.160Z,22.13
2022-11-14T00:45:20.059Z,20.92
2022-11-14T00:47:46.908Z,22.92
2022-11-14T00:50:13.870Z,21.35
2022-11-14T00:52:40.673Z,21.10
2022-11-14T00:55:08.212Z,21.63
2022-11-14T00:57:35.033Z,20.33
2022-11-14T01:00:01.894Z,20.73
2022-11-14T01:02:28.714Z,19.17
2022-11-14T01:04:55.536Z,19.65
2022-11-14T01:07:22.343Z,19.92
2022-11-14T01:09:49.166Z,20.23
2022-11-14T01:12:16.012Z,19.85
2022-11-14T01:14:42.866Z,18.85
2022-11-14T01:17:09.688Z,19.15
2022-11-14T01:19:36.549Z,18.88
2022-11-14T01:22:06.399Z,18.38
2022-11-14T01:24:34.158Z,18.95
2022-11-14T01:27:01.363Z,18.40
2022-11-14T01:29:28.621Z,18.55
2022-11-14T01:31:55.964Z,18.25
2022-11-14T01:34:23.416Z,16.75
2022-11-14T01:36:50.302Z,18.33
2022-11-14T01:39:17.132Z,17.50
2022-11-14T01:41:44.017Z,17.50
2022-11-14T01:44:16.739Z,17.08
2022-11-14T01:46:47.161Z,16.65
2022-11-14T01:49:18.596Z,17.08
2022-11-14T01:51:58.013Z,16.42
2022-11-14T01:54:28.271Z,16.13
2022-11-14T01:57:00.393Z,15.50
2022-11-14T01:59:43.789Z,16.30
2022-11-14T02:02:22.396Z,15.00
2022-11-14T02:05:11.484Z,14.95
2022-11-14T02:07:40.573Z,16.05
2022-11-14T02:10:20.165Z,15.05
2022-11-14T02:12:47.335Z,14.30
2022-11-14T02:15:14.817Z,15.00
2022-11-14T02:17:42.450Z,15.07
2022-11-14T02:20:12.409Z,15.15
2022-11-14T02:22:41.040Z,14.77
2022-11-14T02:25:09.527Z,13.73
2022-11-14T02:27:38.291Z,14.80
2022-11-14T02:30:14.439Z,14.32
2022-11-14T02:35:28.160Z,13.88
2022-11-14T02:37:55.015Z,12.77
2022-11-14T02:40:21.845Z,13.60
2022-11-14T02:42:48.913Z,13.23
2022-11-14T02:45:15.724Z,13.05
2022-11-14T02:47:42.556Z,12.80
2022-11-14T02:50:09.769Z,13.82
2022-11-14T02:52:36.645Z,12.45
2022-11-14T02:55:04.889Z,12.82
2022-11-14T02:57:31.783Z,12.75
2022-11-14T02:59:58.683Z,12.10
2022-11-14T03:02:26.078Z,12.27
2022-11-14T03:04:53.211Z,11.95
2022-11-14T03:07:20.153Z,12.32
2022-11-14T03:09:47.038Z,12.25
2022-11-14T03:12:17.909Z,12.48
2022-11-14T03:14:45.235Z,11.52
2022-11-14T03:17:12.323Z,11.90
2022-11-14T03:19:39.177Z,12.20
2022-11-14T03:22:06.151Z,11.43
2022-11-14T03:24:33.156Z,11.52
2022-11-14T03:26:59.995Z,12.10
2022-11-14T03:29:26.800Z,11.68
2022-11-14T03:31:53.666Z,10.75
2022-11-14T03:34:20.528Z,11.38
2022-11-14T03:36:47.313Z,11.35
2022-11-14T03:39:14.151Z,10.88
2022-11-14T03:41:40.951Z,10.88
2022-11-14T03:44:07.786Z,11.10
2022-11-14T03:46:34.633Z,10.90
2022-11-14T03:49:01.455Z,10.65
2022-11-14T03:51:28.333Z,10.18
2022-11-14T03:53:55.184Z,10.50
2022-11-14T03:56:21.996Z,10.88
2022-11-14T03:58:48.912Z,10.20
2022-11-14T04:01:15.810Z,9.88
2022-11-14T04:03:42.829Z,10.32
2022-11-14T04:06:09.666Z,10.10
2022-11-14T04:08:36.685Z,9.73
2022-11-14T04:11:03.491Z,9.95
2022-11-14T04:13:30.345Z,9.48
2022-11-14T04:15:58.320Z,9.60
2022-11-14T04:18:25.792Z,8.95
2022-11-14T04:20:53.213Z,9.63
2022-11-14T04:23:20.326Z,9.70
2022-11-14T04:25:47.529Z,9.57
2022-11-14T04:28:14.495Z,9.43
2022-11-14T04:30:41.783Z,9.70
2022-11-14T04:33:08.672Z,9.30
2022-11-14T04:35:35.514Z,9.65
2022-11-14T04:38:02.868Z,9.23
2022-11-14T04:40:29.960Z,9.15
2022-11-14T04:42:56.783Z,9.20
2022-11-14T04:45:23.685Z,8.73
2022-11-14T04:47:51.010Z,8.20
2022-11-14T04:50:18.041Z,9.20
2022-11-14T04:52:45.085Z,7.85
2022-11-14T04:55:12.040Z,8.15
2022-11-14T04:57:38.885Z,8.80
2022-11-14T05:00:06.487Z,8.10
2022-11-14T05:02:33.324Z,8.63
2022-11-14T05:05:00.226Z,8.18
2022-11-14T05:07:27.196Z,8.30
2022-11-14T05:09:54.137Z,7.57
2022-11-14T05:12:21.005Z,8.25
2022-11-14T05:14:47.940Z,7.60
2022-11-14T05:17:15.514Z,8.15
2022-11-14T05:19:42.338Z,7.97
2022-11-14T05:22:09.176Z,7.53
2022-11-14T05:24:35.996Z,7.43
2022-11-14T05:27:02.900Z,6.63
2022-11-14T05:29:29.753Z,8.20
2022-11-14T05:31:57.880Z,7.90
2022-11-14T05:34:25.263Z,6.97
2022-11-14T05:36:52.212Z,7.30
2022-11-14T05:39:19.805Z,7.10
2022-11-14T05:41:46.707Z,6.97
2022-11-14T05:44:13.621Z,6.68
2022-11-14T05:46:40.598Z,7.05
2022-11-14T05:49:07.565Z,7.03
2022-11-14T05:51:34.426Z,6.78
2022-11-14T05:54:01.270Z,7.20
2022-11-14T05:56:28.152Z,6.93
2022-11-14T05:58:55.009Z,6.82
2022-11-14T06:01:21.926Z,7.20
2022-11-14T06:03:49.211Z,6.78
2022-11-14T06:06:18.808Z,6.85
2022-11-14T06:08:45.776Z,6.82
2022-11-14T06:11:18.297Z,7.10
2022-11-14T06:13:45.432Z,7.50
2022-11-14T06:16:14.448Z,7.18
2022-11-14T06:18:41.572Z,6.38
2022-11-14T06:21:15.413Z,6.38
2022-11-14T06:23:42.763Z,6.70
2022-11-14T06:26:25.290Z,6.70
2022-11-14T06:28:53.144Z,5.70
2022-11-14T06:31:20.996Z,6.90
2022-11-14T06:33:47.979Z,6.80
2022-11-14T06:36:15.199Z,6.72
2022-11-14T06:38:43.280Z,6.32
2022-11-14T06:41:14.872Z,6.35
2022-11-14T06:43:44.129Z,6.90
2022-11-14T06:46:13.043Z,6.22
2022-11-14T06:48:40.330Z,6.15
2022-11-14T06:51:07.548Z,6.68
2022-11-14T06:53:36.558Z,5.72
2022-11-14T06:56:05.810Z,6.18
2022-11-14T06:58:34.941Z,6.47
2022-11-14T07:01:28.275Z,5.70
2022-11-14T07:03:56.698Z,5.97
2022-11-14T07:06:25.366Z,5.50
2022-11-14T07:08:53.333Z,5.72
2022-11-14T07:11:26.641Z,6.55
2022-11-14T07:13:55.394Z,5.60
2022-11-14T07:16:34.984Z,6.05
2022-11-14T07:19:03.997Z,6.00
2022-11-14T07:21:31.441Z,25.48
2022-11-14T07:23:58.686Z,66.13
2022-11-14T07:26:26.069Z,54.28
2022-11-14T07:28:56.606Z,54.88
2022-11-14T07:31:26.185Z,54.85
2022-11-14T07:33:53.015Z,54.90
2022-11-14T07:36:19.957Z,50.15
2022-11-14T07:38:46.882Z,47.28
2022-11-14T07:41:15.561Z,41.65
2022-11-14T07:43:42.774Z,39.58
2022-11-14T07:46:15.188Z,35.00
2022-11-14T07:48:42.397Z,32.53
2022-11-14T07:51:19.711Z,31.33
2022-11-14T07:53:46.776Z,40.67
2022-11-14T07:56:13.834Z,92.78
2022-11-14T07:58:41.483Z,78.32
2022-11-14T08:01:10.915Z,64.22
2022-11-14T08:03:42.334Z,63.80
2022-11-14T08:06:14.793Z,61.47
2022-11-14T08:08:41.706Z,50.55
2022-11-14T08:11:09.061Z,48.33
2022-11-14T08:13:36.104Z,45.15
2022-11-14T08:16:12.443Z,40.67
2022-11-14T08:18:40.871Z,38.78
2022-11-14T08:21:07.861Z,35.95
2022-11-14T08:23:34.764Z,33.65
2022-11-14T08:26:01.649Z,31.73
2022-11-14T08:28:28.811Z,30.33
2022-11-14T08:31:01.367Z,30.70
2022-11-14T08:33:28.254Z,30.13
2022-11-14T08:35:55.119Z,29.55
2022-11-14T08:38:22.073Z,28.02
2022-11-14T08:40:48.949Z,27.63
2022-11-14T08:43:15.874Z,25.50
2022-11-14T08:45:42.692Z,26.85
2022-11-14T08:48:10.104Z,28.52
2022-11-14T08:50:37.034Z,28.45
2022-11-14T08:53:03.881Z,26.17
2022-11-14T08:55:30.720Z,28.77
2022-11-14T08:57:57.756Z,28.67
2022-11-14T09:00:24.821Z,25.92
2022-11-14T09:02:51.705Z,26.92
2022-11-14T09:05:18.704Z,25.23
2022-11-14T09:07:45.682Z,24.17
2022-11-14T09:10:12.510Z,24.17
2022-11-14T09:12:39.403Z,23.95
2022-11-14T09:15:06.751Z,23.58
2022-11-14T09:17:33.887Z,20.60
2022-11-14T09:20:00.703Z,21.40
2022-11-14T09:22:27.779Z,20.85
2022-11-14T09:24:54.582Z,20.85
2022-11-14T09:27:21.512Z,21.10
2022-11-14T09:29:48.397Z,19.80
2022-11-14T09:32:15.321Z,18.35
2022-11-14T09:34:44.921Z,17.60
2022-11-14T09:37:11.965Z,17.80
2022-11-14T09:39:40.838Z,17.30
2022-11-14T09:42:45.070Z,20.45
2022-11-14T09:45:18.147Z,17.73
2022-11-14T09:47:48.384Z,17.00
2022-11-14T09:50:25.934Z,16.35
2022-11-14T09:52:57.024Z,16.42
2022-11-14T09:55:33.575Z,17.52
2022-11-14T09:58:04.484Z,27.95
2022-11-14T10:01:09.872Z,17.92
2022-11-14T10:03:58.824Z,22.17
2022-11-14T10:07:03.136Z,14.98
2022-11-14T10:10:07.846Z,14.32
2022-11-14T10:12:55.868Z,18.85
2022-11-14T10:15:34.026Z,17.20
2022-11-14T10:18:42.887Z,14.85
2022-11-14T10:21:25.773Z,14.90
2022-11-14T10:24:40.067Z,14.57
2022-11-14T10:27:15.526Z,14.20
2022-11-14T10:29:57.041Z,13.85
2022-11-14T10:33:01.660Z,12.85
2022-11-14T10:38:49.879Z,12.40
2022-11-14T10:41:34.682Z,12.35
2022-11-14T10:44:02.889Z,11.93
2022-11-14T10:46:43.937Z,14.43
2022-11-14T10:49:20.745Z,12.68
2022-11-14T10:52:00.251Z,13.82
2022-11-14T10:54:56.852Z,17.73
2022-11-14T10:57:23.919Z,14.60
2022-11-14T10:59:50.813Z,12.85
2022-11-14T11:02:17.662Z,10.60
2022-11-14T11:04:45.700Z,11.90
2022-11-14T11:07:32.511Z,10.73
2022-11-14T11:10:19.214Z,11.85
2022-11-14T11:12:50.834Z,11.20
2022-11-14T11:15:22.943Z,12.05
2022-11-14T11:17:53.987Z,10.10
2022-11-14T11:20:28.462Z,10.63
2022-11-14T11:23:12.011Z,11.32
2022-11-14T11:25:40.229Z,11.95
2022-11-14T11:28:12.607Z,10.50
2022-11-14T11:30:40.028Z,10.60
2022-11-14T11:33:16.935Z,9.93
2022-11-14T11:35:44.237Z,10.43
2022-11-14T11:38:15.676Z,9.88
2022-11-14T11:40:48.481Z,10.38
2022-11-14T11:43:50.303Z,10.30
2022-11-14T11:46:45.340Z,10.45
2022-11-14T11:49:31.659Z,10.40
2022-11-14T11:52:10.837Z,9.90
2022-11-14T11:54:52.022Z,10.25
2022-11-14T11:57:21.855Z,10.23
2022-11-14T11:59:53.352Z,9.80
2022-11-14T12:02:27.363Z,10.00
2022-11-14T12:04:56.591Z,10.68
2022-11-14T12:07:37.656Z,10.57
2022-11-14T12:10:13.247Z,10.40
2022-11-14T12:12:51.185Z,10.45
2022-11-14T12:15:45.926Z,9.93
2022-11-14T12:18:44.086Z,10.02
2022-11-14T12:21:14.000Z,9.90
2022-11-14T12:23:43.734Z,10.40
2022-11-14T12:29:33.445Z,10.32
2022-11-14T12:32:05.572Z,9.30
2022-11-14T12:34:39.289Z,10.55
2022-11-14T12:37:10.920Z,8.80
2022-11-14T12:39:37.954Z,9.10
2022-11-14T12:42:07.003Z,9.20
2022-11-14T12:44:39.253Z,9.55
2022-11-14T12:47:06.085Z,9.35
2022-11-14T12:50:00.296Z,9.68
2022-11-14T12:52:48.879Z,9.35
2022-11-14T12:55:24.589Z,9.18
2022-11-14T12:58:15.823Z,9.30
2022-11-14T13:00:45.708Z,9.27
2022-11-14T13:03:18.403Z,9.98
2022-11-14T13:06:09.393Z,10.15
2022-11-14T13:08:54.927Z,9.77
2022-11-14T13:11:53.601Z,10.82
2022-11-14T13:14:39.429Z,9.18
2022-11-14T13:17:36.745Z,9.15
2022-11-14T13:20:49.488Z,8.65
2022-11-14T13:23:25.643Z,7.82
2022-11-14T13:26:10.817Z,7.90
2022-11-14T13:28:37.713Z,12.38
2022-11-14T13:31:16.879Z,13.73
2022-11-14T13:33:51.325Z,12.32
2022-11-14T13:36:35.736Z,11.30
2022-11-14T13:39:43.383Z,10.70
2022-11-14T13:42:31.414Z,10.02
2022-11-14T13:45:37.734Z,9.32
2022-11-14T13:48:19.644Z,9.35
2022-11-14T13:50:51.492Z,8.85
2022-11-14T13:53:23.850Z,8.55
2022-11-14T13:55:54.316Z,9.25
2022-11-14T13:58:30.291Z,8.48
2022-11-14T14:01:02.778Z,8.18
2022-11-14T14:03:47.858Z,7.97
2022-11-14T14:06:33.509Z,8.30
2022-11-14T14:09:06.167Z,7.35
2022-11-14T14:11:43.066Z,10.25
2022-11-14T14:14:22.851Z,44.20
2022-11-14T14:17:07.720Z,39.83
2022-11-14T14:19:57.933Z,32.60
2022-11-14T14:22:33.990Z,27.55
2022-11-14T14:25:12.574Z,25.17
2022-11-14T14:28:09.140Z,22.35
2022-11-14T14:30:35.993Z,21.80
2022-11-14T14:33:07.275Z,21.15
2022-11-14T14:35:40.376Z,20.10
2022-11-14T14:38:23.749Z,18.90
2022-11-14T14:40:50.619Z,19.58
2022-11-14T14:43:32.741Z,17.42
2022-11-14T14:46:00.065Z,16.58
2022-11-14T14:48:29.010Z,16.50
2022-11-14T14:50:57.776Z,16.52
2022-11-14T14:53:27.483Z,15.48
2022-11-14T14:56:17.703Z,16.13
2022-11-14T14:58:44.618Z,15.70
2022-11-14T15:01:17.536Z,14.73
2022-11-14T15:03:55.497Z,14.43
2022-11-14T15:06:32.253Z,14.13
2022-11-14T15:09:18.939Z,13.32
2022-11-14T15:11:50.045Z,12.90
2022-11-14T15:14:22.985Z,12.10
2022-11-14T15:16:51.098Z,11.23
2022-11-14T15:19:21.647Z,11.50
2022-11-14T15:22:02.507Z,12.15
2022-11-14T15:24:29.960Z,10.82
2022-11-14T15:26:56.817Z,10.85
2022-11-14T15:29:24.564Z,9.57
2022-11-14T15:32:21.821Z,10.18
2022-11-14T15:35:25.085Z,10.38
2022-11-14T15:38:42.095Z,10.15
2022-11-14T15:41:17.675Z,15.63
2022-11-14T15:43:44.492Z,10.40
2022-11-14T15:46:35.810Z,8.82
2022-11-14T15:49:23.817Z,8.38
2022-11-14T15:54:28.666Z,59.22
2022-11-14T15:56:58.670Z,47.88
2022-11-14T15:59:27.386Z,39.00
2022-11-14T16:02:25.332Z,35.97
2022-11-14T16:04:52.309Z,33.97
2022-11-14T16:07:20.128Z,30.38
2022-11-14T16:09:47.429Z,29.02
2022-11-14T16:12:14.708Z,26.35
2022-11-14T16:14:42.268Z,23.60
2022-11-14T16:17:16.338Z,22.92
2022-11-14T16:19:43.747Z,20.90
2022-11-14T16:22:12.736Z,19.85
2022-11-14T16:24:39.656Z,19.50
2022-11-14T16:27:06.716Z,18.17
2022-11-14T16:29:33.562Z,18.90
2022-11-14T16:32:00.526Z,17.67
2022-11-14T16:34:27.862Z,15.60
2022-11-14T16:37:00.475Z,16.83
2022-11-14T16:39:27.909Z,15.68
2022-11-14T16:42:00.576Z,15.30
2022-11-14T16:44:27.515Z,14.02
2022-11-14T16:46:54.524Z,14.30
2022-11-14T16:49:21.469Z,13.75
2022-11-14T16:51:50.281Z,14.27
2022-11-14T16:54:20.726Z,12.32
2022-11-14T16:56:48.055Z,12.68
2022-11-14T16:59:14.934Z,12.57
2022-11-14T17:01:42.488Z,12.52
2022-11-14T17:04:09.501Z,12.55
2022-11-14T17:06:36.456Z,12.85
2022-11-14T17:09:03.555Z,11.63
2022-11-14T17:11:30.608Z,11.70
2022-11-14T17:13:57.474Z,11.38
2022-11-14T17:16:24.539Z,11.77
2022-11-14T17:18:55.315Z,9.93
2022-11-14T17:21:22.580Z,10.52
2022-11-14T17:23:56.737Z,12.18
2022-11-14T17:26:23.985Z,10.50
2022-11-14T17:28:50.886Z,11.18
2022-11-14T17:31:18.033Z,11.43
2022-11-14T17:33:51.035Z,10.32
2022-11-14T17:36:18.349Z,10.23
2022-11-14T17:38:45.120Z,11.02
2022-11-14T17:41:11.940Z,11.15
2022-11-14T17:43:40.299Z,10.30
2022-11-14T17:46:14.240Z,9.95
2022-11-14T17:48:43.206Z,10.90
2022-11-14T17:51:14.018Z,10.25
2022-11-14T17:53:41.319Z,10.45
2022-11-14T17:56:19.203Z,10.57
2022-11-14T17:58:46.403Z,10.45
2022-11-14T18:01:15.731Z,10.55
2022-11-14T18:03:42.760Z,10.07
2022-11-14T18:06:11.715Z,10.50
2022-11-14T18:08:38.745Z,10.13
2022-11-14T18:11:08.521Z,10.48
2022-11-14T18:16:04.408Z,10.52
2022-11-14T18:18:35.844Z,9.55
2022-11-14T18:21:10.063Z,10.98
2022-11-14T18:23:38.706Z,11.63
2022-11-14T18:26:13.206Z,11.13
2022-11-14T18:28:40.527Z,10.02
2022-11-14T18:31:10.667Z,9.90
2022-11-14T18:33:38.841Z,9.68
2022-11-14T18:36:09.082Z,9.32
2022-11-14T18:38:36.097Z,11.38
2022-11-14T18:41:04.325Z,9.63
2022-11-14T18:43:32.846Z,9.73
2022-11-14T18:46:17.563Z,30.40
2022-11-14T18:48:46.685Z,26.88
2022-11-14T18:51:14.674Z,21.63
2022-11-14T18:53:41.684Z,18.73
2022-11-14T18:56:13.948Z,19.17
2022-11-14T18:58:41.463Z,20.73
2022-11-14T19:01:13.537Z,16.95
2022-11-14T19:03:40.590Z,18.33
2022-11-14T19:06:09.277Z,15.90
2022-11-14T19:08:36.247Z,15.68
2022-11-14T19:11:04.526Z,15.75
2022-11-14T19:13:31.720Z,14.43
2022-11-14T19:16:06.143Z,13.70
2022-11-14T19:18:33.221Z,13.00
2022-11-14T19:21:03.725Z,14.43
2022-11-14T19:23:30.889Z,10.35
2022-11-14T19:26:01.518Z,12.13
2022-11-14T19:28:31.756Z,10.90
2022-11-14T19:31:03.187Z,10.82
2022-11-14T19:33:30.775Z,11.27
2022-11-14T19:35:58.203Z,11.00
2022-11-14T19:38:25.163Z,10.60
2022-11-14T19:40:52.052Z,10.55
2022-11-14T19:43:19.184Z,10.07
2022-11-14T19:45:46.147Z,10.10
2022-11-14T19:48:13.277Z,9.57
2022-11-14T19:50:40.148Z,9.52
2022-11-14T19:53:06.992Z,9.45
2022-11-14T19:55:33.918Z,9.85
2022-11-14T19:58:00.791Z,10.13
2022-11-14T20:00:29.391Z,9.32
2022-11-14T20:02:56.248Z,9.80
2022-11-14T20:05:23.132Z,53.20
2022-11-14T20:07:50.057Z,36.28
2022-11-14T20:10:16.953Z,35.25
2022-11-14T20:12:43.801Z,28.58
2022-11-14T20:15:10.837Z,29.52
2022-11-14T20:17:37.712Z,24.80
2022-11-14T20:20:04.928Z,23.08
2022-11-14T20:22:31.830Z,22.92
2022-11-14T20:24:58.698Z,21.98
2022-11-14T20:27:25.496Z,20.98
2022-11-14T20:29:52.419Z,17.77
2022-11-14T20:32:19.288Z,18.45
2022-11-14T20:34:46.152Z,17.50
2022-11-14T20:37:12.999Z,16.85
2022-11-14T20:39:39.841Z,16.98
2022-11-14T20:42:06.723Z,14.38
2022-11-14T20:44:33.692Z,15.02
2022-11-14T20:47:00.569Z,12.90
2022-11-14T20:49:27.443Z,13.15
2022-11-14T20:51:54.298Z,14.18
2022-11-14T20:54:21.171Z,12.38
2022-11-14T20:56:48.048Z,11.80
2022-11-14T20:59:14.901Z,12.57
2022-11-14T21:01:44.016Z,12.95
2022-11-14T21:04:11.135Z,12.07
2022-11-14T21:06:38.203Z,11.63
2022-11-14T21:09:05.048Z,11.55
2022-11-14T21:11:31.938Z,11.75
2022-11-14T21:13:59.096Z,10.73
2022-11-14T21:16:26.234Z,10.55
2022-11-14T21:18:54.154Z,10.95
2022-11-14T21:21:23.756Z,10.90
2022-11-14T21:23:51.270Z,10.65
2022-11-14T21:26:21.569Z,9.45
2022-11-14T21:28:50.756Z,9.93
2022-11-14T21:31:17.577Z,10.60
2022-11-14T21:33:44.660Z,9.15
2022-11-14T21:36:42.771Z,9.45
2022-11-14T21:38:59.611Z,9.68
2022-11-14T21:41:28.246Z,8.77
2022-11-14T21:44:00.673Z,8.98
2022-11-14T21:46:28.262Z,8.52
2022-11-14T21:48:56.066Z,8.93
2022-11-14T21:51:26.152Z,8.48
2022-11-14T21:53:55.155Z,9.13
2022-11-14T21:56:24.237Z,8.25
2022-11-14T21:58:51.953Z,8.40
2022-11-14T22:01:41.124Z,9.18
2022-11-14T22:04:14.249Z,43.35
2022-11-14T22:06:41.936Z,33.03
2022-11-14T22:09:09.382Z,26.20
2022-11-14T22:11:39.821Z,25.55
2022-11-14T22:14:07.279Z,22.30
2022-11-14T22:16:35.295Z,23.10
2022-11-14T22:19:05.342Z,22.42
2022-11-14T22:21:32.698Z,18.63
2022-11-14T22:23:59.674Z,19.55
2022-11-14T22:26:26.509Z,17.45
2022-11-14T22:28:53.512Z,16.88
2022-11-14T22:31:22.937Z,16.65
2022-11-14T22:33:53.762Z,16.10
2022-11-14T22:36:22.237Z,14.30
2022-11-14T22:38:49.817Z,13.50
2022-11-14T22:41:32.195Z,14.07
2022-11-14T22:44:00.329Z,14.48
2022-11-14T22:46:27.535Z,14.65
2022-11-14T22:48:55.159Z,13.60
2022-11-14T22:51:26.677Z,12.55
2022-11-14T22:53:55.462Z,12.20
2022-11-14T22:56:24.686Z,11.75
2022-11-14T22:58:51.780Z,11.52
2022-11-14T23:01:20.855Z,11.50
2022-11-14T23:03:48.644Z,12.15
2022-11-14T23:08:46.194Z,9.82
2022-11-14T23:11:15.849Z,10.55
2022-11-14T23:13:44.892Z,10.63
2022-11-14T23:16:14.293Z,10.77
2022-11-14T23:18:41.777Z,10.13
2022-11-14T23:21:11.413Z,8.70
2022-11-14T23:23:38.558Z,8.77
2022-11-14T23:26:07.143Z,9.85
2022-11-14T23:28:34.232Z,9.38
2022-11-14T23:31:01.536Z,8.68
2022-11-14T23:33:28.616Z,8.80
2022-11-14T23:35:55.723Z,8.75
2022-11-14T23:38:22.600Z,7.55
2022-11-14T23:40:53.947Z,8.57
2022-11-14T23:43:21.359Z,15.43
2022-11-14T23:45:48.431Z,14.38
2022-11-14T23:48:16.609Z,13.10
2022-11-14T23:50:44.283Z,11.40
2022-11-14T23:53:11.827Z,10.75
2022-11-14T23:55:38.731Z,11.23
2022-11-14T23:58:05.540Z,10.82
